sensor_id;sensor_type;location;lat;lon;timestamp;temperature;humidity
28677;DHT22;15858;48.338;11.078;2022-10-18T00:02:09;12.40;99.90
28677;DHT22;15858;48.338;11.078;2022-10-18T00:04:36;12.40;99.90
28677;DHT22;15858;48.338;11.078;2022-10-18T00:07:03;12.30;99.90
28677;DHT22;15858;48.338;11.078;2022-10-18T00:09:29;12.40;99.90
28677;DHT22;15858;48.338;11.078;2022-10-18T00:11:56;12.40;99.90
28677;DHT22;15858;48.338;11.078;2022-10-18T00:14:23;12.30;99.90
28677;DHT22;15858;48.338;11.078;2022-10-18T00:16:50;12.30;99.90
28677;DHT22;15858;48.338;11.078;2022-10-18T00:19:16;12.40;99.90
28677;DHT22;15858;48.338;11.078;2022-10-18T00:21:43;12.30;99.90
28677;DHT22;15858;48.338;11.078;2022-10-18T00:24:14;12.30;99.90
28677;DHT22;15858;48.338;11.078;2022-10-18T00:26:41;12.30;99.90
28677;DHT22;15858;48.338;11.078;2022-10-18T00:29:12;12.30;99.90
28677;DHT22;15858;48.338;11.078;2022-10-18T00:31:40;12.30;99.90
28677;DHT22;15858;48.338;11.078;2022-10-18T00:34:12;12.20;99.90
28677;DHT22;15858;48.338;11.078;2022-10-18T00:36:40;12.10;99.90
28677;DHT22;15858;48.338;11.078;2022-10-18T00:39:08;12.10;99.90
28677;DHT22;15858;48.338;11.078;2022-10-18T00:41:37;12.20;99.90
28677;DHT22;15858;48.338;11.078;2022-10-18T00:46:57;12.10;99.90
28677;DHT22;15858;48.338;11.078;2022-10-18T00:52:30;12.20;99.90
28677;DHT22;15858;48.338;11.078;2022-10-18T00:54:54;12.10;99.90
28677;DHT22;15858;48.338;11.078;2022-10-18T00:57:21;12.10;99.90
28677;DHT22;15858;48.338;11.078;2022-10-18T00:59:48;12.10;99.90
28677;DHT22;15858;48.338;11.078;2022-10-18T01:02:16;12.00;99.90
28677;DHT22;15858;48.338;11.078;2022-10-18T01:04:44;12.00;99.90
28677;DHT22;15858;48.338;11.078;2022-10-18T01:18:06;12.00;99.90
28677;DHT22;15858;48.338;11.078;2022-10-18T01:21:05;11.90;99.90
28677;DHT22;15858;48.338;11.078;2022-10-18T01:26:48;11.80;99.90
28677;DHT22;15858;48.338;11.078;2022-10-18T01:32:26;11.70;99.90
28677;DHT22;15858;48.338;11.078;2022-10-18T01:34:59;11.70;99.90
28677;DHT22;15858;48.338;11.078;2022-10-18T01:37:28;11.70;99.90
28677;DHT22;15858;48.338;11.078;2022-10-18T01:39:57;11.60;99.90
28677;DHT22;15858;48.338;11.078;2022-10-18T01:42:25;11.60;99.90
28677;DHT22;15858;48.338;11.078;2022-10-18T01:44:53;11.60;99.90
28677;DHT22;15858;48.338;11.078;2022-10-18T01:47:20;11.60;99.90
28677;DHT22;15858;48.338;11.078;2022-10-18T01:49:48;11.60;99.90
28677;DHT22;15858;48.338;11.078;2022-10-18T01:52:15;11.60;99.90
28677;DHT22;15858;48.338;11.078;2022-10-18T01:54:45;11.60;99.90
28677;DHT22;15858;48.338;11.078;2022-10-18T01:57:35;11.60;99.90
28677;DHT22;15858;48.338;11.078;2022-10-18T02:00:18;11.60;99.90
28677;DHT22;15858;48.338;11.078;2022-10-18T02:03:00;11.60;99.90
28677;DHT22;15858;48.338;11.078;2022-10-18T02:11:28;11.40;99.90
28677;DHT22;15858;48.338;11.078;2022-10-18T02:14:02;11.40;99.90
28677;DHT22;15858;48.338;11.078;2022-10-18T02:16:36;11.30;99.90
28677;DHT22;15858;48.338;11.078;2022-10-18T02:19:52;11.30;99.90
28677;DHT22;15858;48.338;11.078;2022-10-18T02:21:58;11.30;99.90
28677;DHT22;15858;48.338;11.078;2022-10-18T02:24:32;11.30;99.90
28677;DHT22;15858;48.338;11.078;2022-10-18T02:27:00;11.30;99.90
28677;DHT22;15858;48.338;11.078;2022-10-18T02:29:28;11.30;99.90
28677;DHT22;15858;48.338;11.078;2022-10-18T02:32:03;11.20;99.90
28677;DHT22;15858;48.338;11.078;2022-10-18T02:34:43;11.20;99.90
28677;DHT22;15858;48.338;11.078;2022-10-18T02:37:12;11.20;99.90
28677;DHT22;15858;48.338;11.078;2022-10-18T02:39:45;11.20;99.90
28677;DHT22;15858;48.338;11.078;2022-10-18T02:42:13;11.30;99.90
28677;DHT22;15858;48.338;11.078;2022-10-18T02:44:40;11.30;99.90
28677;DHT22;15858;48.338;11.078;2022-10-18T02:47:08;11.30;99.90
28677;DHT22;15858;48.338;11.078;2022-10-18T02:49:36;11.40;99.90
28677;DHT22;15858;48.338;11.078;2022-10-18T02:52:02;11.50;99.90
28677;DHT22;15858;48.338;11.078;2022-10-18T02:54:29;11.50;99.90
28677;DHT22;15858;48.338;11.078;2022-10-18T02:56:56;11.50;99.90
28677;DHT22;15858;48.338;11.078;2022-10-18T02:59:22;11.50;99.90
28677;DHT22;15858;48.338;11.078;2022-10-18T03:01:49;11.50;99.90
28677;DHT22;15858;48.338;11.078;2022-10-18T03:04:16;11.50;99.90
28677;DHT22;15858;48.338;11.078;2022-10-18T03:06:42;11.50;99.90
28677;DHT22;15858;48.338;11.078;2022-10-18T03:09:09;11.40;99.90
28677;DHT22;15858;48.338;11.078;2022-10-18T03:11:35;11.40;99.90
28677;DHT22;15858;48.338;11.078;2022-10-18T03:14:02;11.40;99.90
28677;DHT22;15858;48.338;11.078;2022-10-18T03:16:29;11.40;99.90
28677;DHT22;15858;48.338;11.078;2022-10-18T03:18:55;11.30;99.90
28677;DHT22;15858;48.338;11.078;2022-10-18T03:21:22;11.30;99.90
28677;DHT22;15858;48.338;11.078;2022-10-18T03:23:49;11.30;99.90
28677;DHT22;15858;48.338;11.078;2022-10-18T03:26:15;11.30;99.90
28677;DHT22;15858;48.338;11.078;2022-10-18T03:28:42;11.30;99.90
28677;DHT22;15858;48.338;11.078;2022-10-18T03:31:08;11.30;99.90
28677;DHT22;15858;48.338;11.078;2022-10-18T03:33:35;11.30;99.90
28677;DHT22;15858;48.338;11.078;2022-10-18T03:36:02;11.30;99.90
28677;DHT22;15858;48.338;11.078;2022-10-18T03:38:29;11.30;99.90
28677;DHT22;15858;48.338;11.078;2022-10-18T03:40:55;11.30;99.90
28677;DHT22;15858;48.338;11.078;2022-10-18T03:43:22;11.30;99.90
28677;DHT22;15858;48.338;11.078;2022-10-18T03:45:50;11.30;99.90
28677;DHT22;15858;48.338;11.078;2022-10-18T03:48:17;11.20;99.90
28677;DHT22;15858;48.338;11.078;2022-10-18T03:50:44;11.20;99.90
28677;DHT22;15858;48.338;11.078;2022-10-18T03:53:11;11.10;99.90
28677;DHT22;15858;48.338;11.078;2022-10-18T03:55:37;11.10;99.90
28677;DHT22;15858;48.338;11.078;2022-10-18T03:58:04;11.10;99.90
28677;DHT22;15858;48.338;11.078;2022-10-18T04:00:31;11.00;99.90
28677;DHT22;15858;48.338;11.078;2022-10-18T04:02:58;11.10;99.90
28677;DHT22;15858;48.338;11.078;2022-10-18T04:05:24;11.20;99.90
28677;DHT22;15858;48.338;11.078;2022-10-18T04:07:51;11.20;99.90
28677;DHT22;15858;48.338;11.078;2022-10-18T04:10:20;11.20;99.90
28677;DHT22;15858;48.338;11.078;2022-10-18T04:12:47;11.30;99.90
28677;DHT22;15858;48.338;11.078;2022-10-18T04:15:14;11.30;99.90
28677;DHT22;15858;48.338;11.078;2022-10-18T04:17:40;11.30;99.90
28677;DHT22;15858;48.338;11.078;2022-10-18T04:20:07;11.30;99.90
28677;DHT22;15858;48.338;11.078;2022-10-18T04:22:34;11.30;99.90
28677;DHT22;15858;48.338;11.078;2022-10-18T04:25:01;11.40;99.90
28677;DHT22;15858;48.338;11.078;2022-10-18T04:27:27;11.40;99.90
28677;DHT22;15858;48.338;11.078;2022-10-18T04:29:54;11.50;99.90
28677;DHT22;15858;48.338;11.078;2022-10-18T04:32:21;11.50;99.90
28677;DHT22;15858;48.338;11.078;2022-10-18T04:34:47;11.60;99.90
28677;DHT22;15858;48.338;11.078;2022-10-18T04:37:14;11.60;99.90
28677;DHT22;15858;48.338;11.078;2022-10-18T04:39:41;11.70;99.90
28677;DHT22;15858;48.338;11.078;2022-10-18T04:42:07;11.70;99.90
28677;DHT22;15858;48.338;11.078;2022-10-18T04:44:34;11.80;99.90
28677;DHT22;15858;48.338;11.078;2022-10-18T04:47:00;11.80;99.90
28677;DHT22;15858;48.338;11.078;2022-10-18T04:49:27;11.80;99.90
28677;DHT22;15858;48.338;11.078;2022-10-18T04:51:54;11.80;99.90
28677;DHT22;15858;48.338;11.078;2022-10-18T04:54:20;11.80;99.90
28677;DHT22;15858;48.338;11.078;2022-10-18T04:56:52;11.80;99.90
28677;DHT22;15858;48.338;11.078;2022-10-18T04:59:19;11.80;99.90
28677;DHT22;15858;48.338;11.078;2022-10-18T05:01:45;11.80;99.90
28677;DHT22;15858;48.338;11.078;2022-10-18T05:04:12;11.90;99.90
28677;DHT22;15858;48.338;11.078;2022-10-18T05:06:39;11.80;99.90
28677;DHT22;15858;48.338;11.078;2022-10-18T05:09:05;11.90;99.90
28677;DHT22;15858;48.338;11.078;2022-10-18T05:11:32;11.90;99.90
28677;DHT22;15858;48.338;11.078;2022-10-18T05:13:59;11.90;99.90
28677;DHT22;15858;48.338;11.078;2022-10-18T05:16:25;12.00;99.90
28677;DHT22;15858;48.338;11.078;2022-10-18T05:18:52;11.90;99.90
28677;DHT22;15858;48.338;11.078;2022-10-18T05:21:18;12.00;99.90
28677;DHT22;15858;48.338;11.078;2022-10-18T05:23:45;12.00;99.90
28677;DHT22;15858;48.338;11.078;2022-10-18T05:26:12;12.00;99.90
28677;DHT22;15858;48.338;11.078;2022-10-18T05:28:38;12.10;99.90
28677;DHT22;15858;48.338;11.078;2022-10-18T05:31:08;12.10;99.90
28677;DHT22;15858;48.338;11.078;2022-10-18T05:33:35;12.10;99.90
28677;DHT22;15858;48.338;11.078;2022-10-18T05:36:02;12.10;99.90
28677;DHT22;15858;48.338;11.078;2022-10-18T05:38:28;12.10;99.90
28677;DHT22;15858;48.338;11.078;2022-10-18T05:40:56;12.20;99.90
28677;DHT22;15858;48.338;11.078;2022-10-18T05:43:22;12.20;99.90
28677;DHT22;15858;48.338;11.078;2022-10-18T05:45:50;12.20;99.90
28677;DHT22;15858;48.338;11.078;2022-10-18T05:48:17;12.20;99.90
28677;DHT22;15858;48.338;11.078;2022-10-18T05:50:44;12.20;99.90
28677;DHT22;15858;48.338;11.078;2022-10-18T05:53:11;12.20;99.90
28677;DHT22;15858;48.338;11.078;2022-10-18T05:56:01;12.30;99.90
28677;DHT22;15858;48.338;11.078;2022-10-18T05:58:28;12.30;99.90
28677;DHT22;15858;48.338;11.078;2022-10-18T06:01:00;12.30;99.90
28677;DHT22;15858;48.338;11.078;2022-10-18T06:03:27;12.40;99.90
28677;DHT22;15858;48.338;11.078;2022-10-18T06:06:05;12.40;99.90
28677;DHT22;15858;48.338;11.078;2022-10-18T06:08:32;12.50;99.90
28677;DHT22;15858;48.338;11.078;2022-10-18T06:11:04;12.50;99.90
28677;DHT22;15858;48.338;11.078;2022-10-18T06:13:31;12.50;99.90
28677;DHT22;15858;48.338;11.078;2022-10-18T06:15:59;12.50;99.90
28677;DHT22;15858;48.338;11.078;2022-10-18T06:18:25;12.50;99.90
28677;DHT22;15858;48.338;11.078;2022-10-18T06:20:56;12.60;99.90
28677;DHT22;15858;48.338;11.078;2022-10-18T06:23:24;12.60;99.90
28677;DHT22;15858;48.338;11.078;2022-10-18T06:25:50;12.60;99.90
28677;DHT22;15858;48.338;11.078;2022-10-18T06:28:17;12.50;99.90
28677;DHT22;15858;48.338;11.078;2022-10-18T06:30:44;12.50;99.90
28677;DHT22;15858;48.338;11.078;2022-10-18T06:33:10;12.60;99.90
28677;DHT22;15858;48.338;11.078;2022-10-18T06:35:37;12.60;99.90
28677;DHT22;15858;48.338;11.078;2022-10-18T06:38:03;12.60;99.90
28677;DHT22;15858;48.338;11.078;2022-10-18T06:40:30;12.70;99.90
28677;DHT22;15858;48.338;11.078;2022-10-18T06:42:57;12.80;99.90
28677;DHT22;15858;48.338;11.078;2022-10-18T06:45:36;12.80;99.90
28677;DHT22;15858;48.338;11.078;2022-10-18T06:48:02;12.90;99.90
28677;DHT22;15858;48.338;11.078;2022-10-18T06:50:29;12.90;99.90
28677;DHT22;15858;48.338;11.078;2022-10-18T06:52:56;13.00;99.90
28677;DHT22;15858;48.338;11.078;2022-10-18T06:55:22;13.00;99.90
28677;DHT22;15858;48.338;11.078;2022-10-18T06:57:49;13.00;99.90
28677;DHT22;15858;48.338;11.078;2022-10-18T07:00:16;13.10;99.90
28677;DHT22;15858;48.338;11.078;2022-10-18T07:02:42;13.10;99.90
28677;DHT22;15858;48.338;11.078;2022-10-18T07:05:09;13.20;99.90
28677;DHT22;15858;48.338;11.078;2022-10-18T07:07:36;13.30;99.90
28677;DHT22;15858;48.338;11.078;2022-10-18T07:10:03;13.40;99.90
28677;DHT22;15858;48.338;11.078;2022-10-18T07:12:31;13.40;99.90
28677;DHT22;15858;48.338;11.078;2022-10-18T07:14:58;13.60;99.90
28677;DHT22;15858;48.338;11.078;2022-10-18T07:17:25;13.70;99.90
28677;DHT22;15858;48.338;11.078;2022-10-18T07:19:51;13.80;99.90
28677;DHT22;15858;48.338;11.078;2022-10-18T07:22:18;13.90;99.90
28677;DHT22;15858;48.338;11.078;2022-10-18T07:24:44;13.90;99.90
28677;DHT22;15858;48.338;11.078;2022-10-18T07:27:11;14.00;99.90
28677;DHT22;15858;48.338;11.078;2022-10-18T07:29:38;14.00;99.90
28677;DHT22;15858;48.338;11.078;2022-10-18T07:32:04;14.10;99.90
28677;DHT22;15858;48.338;11.078;2022-10-18T07:34:31;14.20;99.90
28677;DHT22;15858;48.338;11.078;2022-10-18T07:36:58;14.20;99.90
28677;DHT22;15858;48.338;11.078;2022-10-18T07:39:24;14.30;99.90
28677;DHT22;15858;48.338;11.078;2022-10-18T07:41:51;14.40;99.90
28677;DHT22;15858;48.338;11.078;2022-10-18T07:44:17;14.40;99.90
28677;DHT22;15858;48.338;11.078;2022-10-18T07:46:44;14.40;99.90
28677;DHT22;15858;48.338;11.078;2022-10-18T07:49:10;14.50;99.90
28677;DHT22;15858;48.338;11.078;2022-10-18T07:51:37;14.50;99.90
28677;DHT22;15858;48.338;11.078;2022-10-18T07:54:04;14.50;99.90
28677;DHT22;15858;48.338;11.078;2022-10-18T07:56:30;14.60;99.90
28677;DHT22;15858;48.338;11.078;2022-10-18T07:58:57;14.60;99.90
28677;DHT22;15858;48.338;11.078;2022-10-18T08:01:24;14.70;99.90
28677;DHT22;15858;48.338;11.078;2022-10-18T08:03:51;14.70;99.90
28677;DHT22;15858;48.338;11.078;2022-10-18T08:06:19;14.70;99.90
28677;DHT22;15858;48.338;11.078;2022-10-18T08:08:46;14.80;99.90
28677;DHT22;15858;48.338;11.078;2022-10-18T08:11:16;14.80;99.90
28677;DHT22;15858;48.338;11.078;2022-10-18T08:13:43;14.90;99.90
28677;DHT22;15858;48.338;11.078;2022-10-18T08:16:15;15.00;99.90
28677;DHT22;15858;48.338;11.078;2022-10-18T08:18:42;15.00;99.90
28677;DHT22;15858;48.338;11.078;2022-10-18T08:21:10;15.10;99.90
28677;DHT22;15858;48.338;11.078;2022-10-18T08:23:37;15.20;99.90
28677;DHT22;15858;48.338;11.078;2022-10-18T08:26:07;15.30;99.90
28677;DHT22;15858;48.338;11.078;2022-10-18T08:28:34;15.40;99.90
28677;DHT22;15858;48.338;11.078;2022-10-18T08:31:05;15.40;99.90
28677;DHT22;15858;48.338;11.078;2022-10-18T08:33:33;15.40;99.90
28677;DHT22;15858;48.338;11.078;2022-10-18T08:36:02;15.50;99.90
28677;DHT22;15858;48.338;11.078;2022-10-18T08:38:30;15.60;99.90
28677;DHT22;15858;48.338;11.078;2022-10-18T08:41:11;15.70;99.90
28677;DHT22;15858;48.338;11.078;2022-10-18T08:44:05;15.80;99.90
28677;DHT22;15858;48.338;11.078;2022-10-18T08:46:34;15.90;99.90
28677;DHT22;15858;48.338;11.078;2022-10-18T08:49:02;15.90;99.90
28677;DHT22;15858;48.338;11.078;2022-10-18T08:51:37;16.00;99.90
28677;DHT22;15858;48.338;11.078;2022-10-18T08:54:38;16.00;99.90
28677;DHT22;15858;48.338;11.078;2022-10-18T08:57:12;16.10;99.90
28677;DHT22;15858;48.338;11.078;2022-10-18T08:59:40;16.10;99.90
28677;DHT22;15858;48.338;11.078;2022-10-18T09:02:29;16.10;99.90
28677;DHT22;15858;48.338;11.078;2022-10-18T09:05:26;16.10;99.90
28677;DHT22;15858;48.338;11.078;2022-10-18T09:10:41;16.30;99.90
28677;DHT22;15858;48.338;11.078;2022-10-18T09:16:04;16.50;99.90
28677;DHT22;15858;48.338;11.078;2022-10-18T09:19:37;16.70;99.90
28677;DHT22;15858;48.338;11.078;2022-10-18T09:21:57;16.90;99.90
28677;DHT22;15858;48.338;11.078;2022-10-18T09:27:36;17.50;99.90
28677;DHT22;15858;48.338;11.078;2022-10-18T09:30:37;17.60;99.90
28677;DHT22;15858;48.338;11.078;2022-10-18T09:36:02;18.10;99.90
28677;DHT22;15858;48.338;11.078;2022-10-18T09:38:36;18.30;99.90
28677;DHT22;15858;48.338;11.078;2022-10-18T09:41:11;18.50;99.90
28677;DHT22;15858;48.338;11.078;2022-10-18T09:44:02;18.70;99.90
28677;DHT22;15858;48.338;11.078;2022-10-18T09:46:33;18.90;99.90
28677;DHT22;15858;48.338;11.078;2022-10-18T09:49:16;19.10;99.90
28677;DHT22;15858;48.338;11.078;2022-10-18T09:51:44;19.30;99.90
28677;DHT22;15858;48.338;11.078;2022-10-18T09:54:37;19.50;99.90
28677;DHT22;15858;48.338;11.078;2022-10-18T09:57:21;19.70;99.90
28677;DHT22;15858;48.338;11.078;2022-10-18T09:59:50;19.80;99.90
28677;DHT22;15858;48.338;11.078;2022-10-18T10:02:19;20.00;99.90
28677;DHT22;15858;48.338;11.078;2022-10-18T10:04:47;20.10;99.90
28677;DHT22;15858;48.338;11.078;2022-10-18T10:07:20;20.30;99.90
28677;DHT22;15858;48.338;11.078;2022-10-18T10:12:44;20.70;99.90
28677;DHT22;15858;48.338;11.078;2022-10-18T10:15:18;20.90;99.90
28677;DHT22;15858;48.338;11.078;2022-10-18T10:18:04;21.10;99.90
28677;DHT22;15858;48.338;11.078;2022-10-18T10:20:51;21.30;99.90
28677;DHT22;15858;48.338;11.078;2022-10-18T10:25:54;21.70;99.90
28677;DHT22;15858;48.338;11.078;2022-10-18T10:28:34;21.80;99.90
28677;DHT22;15858;48.338;11.078;2022-10-18T10:36:53;22.10;99.90
28677;DHT22;15858;48.338;11.078;2022-10-18T10:39:23;22.20;99.90
28677;DHT22;15858;48.338;11.078;2022-10-18T10:41:55;22.40;99.90
28677;DHT22;15858;48.338;11.078;2022-10-18T10:44:29;22.50;99.90
28677;DHT22;15858;48.338;11.078;2022-10-18T10:46:56;22.50;99.90
28677;DHT22;15858;48.338;11.078;2022-10-18T10:49:26;22.70;99.90
28677;DHT22;15858;48.338;11.078;2022-10-18T10:52:06;22.80;99.90
28677;DHT22;15858;48.338;11.078;2022-10-18T10:54:53;22.80;99.90
28677;DHT22;15858;48.338;11.078;2022-10-18T10:57:37;22.90;99.90
28677;DHT22;15858;48.338;11.078;2022-10-18T11:00:04;23.00;99.90
28677;DHT22;15858;48.338;11.078;2022-10-18T11:02:32;23.10;99.90
28677;DHT22;15858;48.338;11.078;2022-10-18T11:05:22;23.30;99.90
28677;DHT22;15858;48.338;11.078;2022-10-18T11:07:51;23.50;99.90
28677;DHT22;15858;48.338;11.078;2022-10-18T11:10:22;23.70;99.90
28677;DHT22;15858;48.338;11.078;2022-10-18T11:13:05;23.60;99.90
28677;DHT22;15858;48.338;11.078;2022-10-18T11:15:42;23.90;99.90
28677;DHT22;15858;48.338;11.078;2022-10-18T11:18:21;24.00;99.90
28677;DHT22;15858;48.338;11.078;2022-10-18T11:21:02;24.10;99.90
28677;DHT22;15858;48.338;11.078;2022-10-18T11:23:32;24.10;99.90
28677;DHT22;15858;48.338;11.078;2022-10-18T11:34:30;24.40;99.90
28677;DHT22;15858;48.338;11.078;2022-10-18T11:42:57;24.30;99.90
28677;DHT22;15858;48.338;11.078;2022-10-18T12:05:15;25.00;99.90
28677;DHT22;15858;48.338;11.078;2022-10-18T12:08:04;25.20;99.90
28677;DHT22;15858;48.338;11.078;2022-10-18T12:10:34;25.00;99.90
28677;DHT22;15858;48.338;11.078;2022-10-18T12:13:33;25.10;99.90
28677;DHT22;15858;48.338;11.078;2022-10-18T12:16:03;25.00;99.90
28677;DHT22;15858;48.338;11.078;2022-10-18T12:18:31;25.10;99.90
28677;DHT22;15858;48.338;11.078;2022-10-18T12:20:59;25.00;99.90
28677;DHT22;15858;48.338;11.078;2022-10-18T12:26:01;25.30;99.90
28677;DHT22;15858;48.338;11.078;2022-10-18T12:33:51;25.00;99.90
28677;DHT22;15858;48.338;11.078;2022-10-18T12:39:02;24.40;99.90
28677;DHT22;15858;48.338;11.078;2022-10-18T12:41:32;24.00;99.90
28677;DHT22;15858;48.338;11.078;2022-10-18T12:44:19;23.70;99.90
28677;DHT22;15858;48.338;11.078;2022-10-18T12:46:54;23.40;99.90
28677;DHT22;15858;48.338;11.078;2022-10-18T12:49:34;23.30;99.90
28677;DHT22;15858;48.338;11.078;2022-10-18T12:52:27;23.20;99.90
28677;DHT22;15858;48.338;11.078;2022-10-18T13:08:39;23.30;99.90
28677;DHT22;15858;48.338;11.078;2022-10-18T13:16:47;22.90;99.90
28677;DHT22;15858;48.338;11.078;2022-10-18T13:25:03;22.70;99.90
28677;DHT22;15858;48.338;11.078;2022-10-18T13:27:56;22.60;99.90
28677;DHT22;15858;48.338;11.078;2022-10-18T13:30:54;22.50;99.90
28677;DHT22;15858;48.338;11.078;2022-10-18T13:33:36;22.40;99.90
28677;DHT22;15858;48.338;11.078;2022-10-18T13:41:24;22.30;99.90
28677;DHT22;15858;48.338;11.078;2022-10-18T13:44:16;22.40;99.90
28677;DHT22;15858;48.338;11.078;2022-10-18T14:06:41;22.50;99.90
28677;DHT22;15858;48.338;11.078;2022-10-18T14:09:22;22.30;99.90
28677;DHT22;15858;48.338;11.078;2022-10-18T14:12:20;22.30;99.90
28677;DHT22;15858;48.338;11.078;2022-10-18T14:17:43;22.20;99.90
28677;DHT22;15858;48.338;11.078;2022-10-18T14:20:21;22.10;99.90
28677;DHT22;15858;48.338;11.078;2022-10-18T14:23:06;22.10;99.90
28677;DHT22;15858;48.338;11.078;2022-10-18T14:25:36;22.20;99.90
28677;DHT22;15858;48.338;11.078;2022-10-18T14:28:20;22.00;99.90
28677;DHT22;15858;48.338;11.078;2022-10-18T14:31:14;21.90;99.90
28677;DHT22;15858;48.338;11.078;2022-10-18T14:33:54;21.90;99.90
28677;DHT22;15858;48.338;11.078;2022-10-18T14:36:26;21.80;99.90
28677;DHT22;15858;48.338;11.078;2022-10-18T14:39:05;21.60;99.90
28677;DHT22;15858;48.338;11.078;2022-10-18T14:41:38;21.20;99.90
28677;DHT22;15858;48.338;11.078;2022-10-18T14:47:31;20.50;99.90
28677;DHT22;15858;48.338;11.078;2022-10-18T14:49:43;20.40;99.90
28677;DHT22;15858;48.338;11.078;2022-10-18T14:52:18;20.20;99.90
28677;DHT22;15858;48.338;11.078;2022-10-18T14:54:54;20.00;99.90
28677;DHT22;15858;48.338;11.078;2022-10-18T14:57:35;19.90;99.90
28677;DHT22;15858;48.338;11.078;2022-10-18T15:00:29;19.80;99.90
28677;DHT22;15858;48.338;11.078;2022-10-18T15:03:00;19.80;99.90
28677;DHT22;15858;48.338;11.078;2022-10-18T15:05:26;19.70;99.90
28677;DHT22;15858;48.338;11.078;2022-10-18T15:07:54;19.60;99.90
28677;DHT22;15858;48.338;11.078;2022-10-18T15:10:26;19.50;99.90
28677;DHT22;15858;48.338;11.078;2022-10-18T15:12:56;19.50;99.90
28677;DHT22;15858;48.338;11.078;2022-10-18T15:15:36;19.40;99.90
28677;DHT22;15858;48.338;11.078;2022-10-18T15:18:04;19.30;99.90
28677;DHT22;15858;48.338;11.078;2022-10-18T15:20:35;19.10;99.90
28677;DHT22;15858;48.338;11.078;2022-10-18T15:23:24;19.10;99.90
28677;DHT22;15858;48.338;11.078;2022-10-18T15:25:58;19.10;99.90
28677;DHT22;15858;48.338;11.078;2022-10-18T15:28:31;19.10;99.90
28677;DHT22;15858;48.338;11.078;2022-10-18T15:30:58;19.00;99.90
28677;DHT22;15858;48.338;11.078;2022-10-18T15:33:25;18.90;99.90
28677;DHT22;15858;48.338;11.078;2022-10-18T15:35:52;18.90;99.90
28677;DHT22;15858;48.338;11.078;2022-10-18T15:38:26;18.90;99.90
28677;DHT22;15858;48.338;11.078;2022-10-18T15:40:53;18.90;99.90
28677;DHT22;15858;48.338;11.078;2022-10-18T15:45:56;18.90;99.90
28677;DHT22;15858;48.338;11.078;2022-10-18T15:48:40;18.80;99.90
28677;DHT22;15858;48.338;11.078;2022-10-18T15:51:45;18.80;99.90
28677;DHT22;15858;48.338;11.078;2022-10-18T15:54:19;18.70;99.90
28677;DHT22;15858;48.338;11.078;2022-10-18T15:56:55;18.70;99.90
28677;DHT22;15858;48.338;11.078;2022-10-18T15:59:27;18.60;99.90
28677;DHT22;15858;48.338;11.078;2022-10-18T16:01:54;18.60;99.90
28677;DHT22;15858;48.338;11.078;2022-10-18T16:04:27;18.60;99.90
28677;DHT22;15858;48.338;11.078;2022-10-18T16:06:55;18.60;99.90
28677;DHT22;15858;48.338;11.078;2022-10-18T16:09:24;18.60;99.90
28677;DHT22;15858;48.338;11.078;2022-10-18T16:11:51;18.50;99.90
28677;DHT22;15858;48.338;11.078;2022-10-18T16:14:23;18.40;99.90
28677;DHT22;15858;48.338;11.078;2022-10-18T16:16:53;18.40;99.90
28677;DHT22;15858;48.338;11.078;2022-10-18T16:19:20;18.30;99.90
28677;DHT22;15858;48.338;11.078;2022-10-18T16:21:46;18.30;99.90
28677;DHT22;15858;48.338;11.078;2022-10-18T16:24:13;18.20;99.90
28677;DHT22;15858;48.338;11.078;2022-10-18T16:26:40;18.20;99.90
28677;DHT22;15858;48.338;11.078;2022-10-18T16:29:15;18.10;99.90
28677;DHT22;15858;48.338;11.078;2022-10-18T16:31:42;18.10;99.90
28677;DHT22;15858;48.338;11.078;2022-10-18T16:34:08;18.00;99.90
28677;DHT22;15858;48.338;11.078;2022-10-18T16:36:35;18.00;99.90
28677;DHT22;15858;48.338;11.078;2022-10-18T16:39:05;18.00;99.90
28677;DHT22;15858;48.338;11.078;2022-10-18T16:41:32;17.90;99.90
28677;DHT22;15858;48.338;11.078;2022-10-18T16:43:59;17.90;99.90
28677;DHT22;15858;48.338;11.078;2022-10-18T16:46:30;17.80;99.90
28677;DHT22;15858;48.338;11.078;2022-10-18T16:49:03;17.70;99.90
28677;DHT22;15858;48.338;11.078;2022-10-18T16:51:30;17.70;99.90
28677;DHT22;15858;48.338;11.078;2022-10-18T16:53:57;17.70;99.90
28677;DHT22;15858;48.338;11.078;2022-10-18T16:56:28;17.70;99.90
28677;DHT22;15858;48.338;11.078;2022-10-18T16:58:56;17.70;99.90
28677;DHT22;15858;48.338;11.078;2022-10-18T17:01:24;17.70;99.90
28677;DHT22;15858;48.338;11.078;2022-10-18T17:03:51;17.60;99.90
28677;DHT22;15858;48.338;11.078;2022-10-18T17:06:24;17.60;99.90
28677;DHT22;15858;48.338;11.078;2022-10-18T17:08:52;17.60;99.90
28677;DHT22;15858;48.338;11.078;2022-10-18T17:11:20;17.50;99.90
28677;DHT22;15858;48.338;11.078;2022-10-18T17:13:47;17.50;99.90
28677;DHT22;15858;48.338;11.078;2022-10-18T17:16:27;17.40;99.90
28677;DHT22;15858;48.338;11.078;2022-10-18T17:18:56;17.30;99.90
28677;DHT22;15858;48.338;11.078;2022-10-18T17:21:23;17.30;99.90
28677;DHT22;15858;48.338;11.078;2022-10-18T17:23:50;17.30;99.90
28677;DHT22;15858;48.338;11.078;2022-10-18T17:26:22;17.20;99.90
28677;DHT22;15858;48.338;11.078;2022-10-18T17:28:58;17.10;99.90
28677;DHT22;15858;48.338;11.078;2022-10-18T17:31:26;17.00;99.90
28677;DHT22;15858;48.338;11.078;2022-10-18T17:33:53;17.10;99.90
28677;DHT22;15858;48.338;11.078;2022-10-18T17:36:20;17.00;99.90
28677;DHT22;15858;48.338;11.078;2022-10-18T17:38:51;16.90;99.90
28677;DHT22;15858;48.338;11.078;2022-10-18T17:41:17;16.90;99.90
28677;DHT22;15858;48.338;11.078;2022-10-18T17:43:44;16.80;99.90
28677;DHT22;15858;48.338;11.078;2022-10-18T17:46:11;16.80;99.90
28677;DHT22;15858;48.338;11.078;2022-10-18T17:48:38;16.80;99.90
28677;DHT22;15858;48.338;11.078;2022-10-18T17:51:06;16.70;99.90
28677;DHT22;15858;48.338;11.078;2022-10-18T17:53:33;16.70;99.90
28677;DHT22;15858;48.338;11.078;2022-10-18T17:56:01;16.60;99.90
28677;DHT22;15858;48.338;11.078;2022-10-18T17:58:29;16.60;99.90
28677;DHT22;15858;48.338;11.078;2022-10-18T18:00:56;16.60;99.90
28677;DHT22;15858;48.338;11.078;2022-10-18T18:03:23;16.50;99.90
28677;DHT22;15858;48.338;11.078;2022-10-18T18:05:49;16.50;99.90
28677;DHT22;15858;48.338;11.078;2022-10-18T18:08:16;16.50;99.90
28677;DHT22;15858;48.338;11.078;2022-10-18T18:10:42;16.50;99.90
28677;DHT22;15858;48.338;11.078;2022-10-18T18:13:09;16.40;99.90
28677;DHT22;15858;48.338;11.078;2022-10-18T18:15:36;16.40;99.90